createdAt,value
2022-07-26T00:00:10.317Z,98242.28
2022-07-26T00:02:36.977Z,98223.78
2022-07-26T00:05:04.332Z,98237.03
2022-07-26T00:07:36.411Z,98226.94
2022-07-26T00:10:05.482Z,98239.13
2022-07-26T00:12:32.712Z,98244.53
2022-07-26T00:14:59.663Z,98240.19
2022-07-26T00:17:26.302Z,98217.22
2022-07-26T00:19:52.917Z,98216.75
2022-07-26T00:22:34.594Z,98226.63
2022-07-26T00:25:04.168Z,98239.00
2022-07-26T00:27:30.790Z,98226.94
2022-07-26T00:29:57.493Z,98218.16
2022-07-26T00:32:24.174Z,98231.78
2022-07-26T00:34:52.045Z,98219.78
2022-07-26T00:37:20.467Z,98221.41
2022-07-26T00:39:47.485Z,98237.13
2022-07-26T00:42:14.176Z,98231.38
2022-07-26T00:44:42.763Z,98234.91
2022-07-26T00:47:09.926Z,98236.28
2022-07-26T00:49:37.277Z,98237.88
2022-07-26T00:52:05.797Z,98224.28
2022-07-26T00:54:32.508Z,98209.94
2022-07-26T00:56:59.217Z,98208.66
2022-07-26T00:59:25.870Z,98190.13
2022-07-26T01:01:52.556Z,98208.03
2022-07-26T01:04:19.305Z,98212.69
2022-07-26T01:06:46.799Z,98231.81
2022-07-26T01:09:14.319Z,98214.13
2022-07-26T01:11:41.070Z,98202.03
2022-07-26T01:14:07.970Z,98206.72
2022-07-26T01:16:35.199Z,98215.03
2022-07-26T01:19:01.891Z,98202.13
2022-07-26T01:21:32.139Z,98220.28
2022-07-26T01:23:59.282Z,98233.19
2022-07-26T01:26:25.960Z,98215.31
2022-07-26T01:28:52.699Z,98232.00
2022-07-26T01:31:19.515Z,98213.34
2022-07-26T01:33:47.243Z,98217.00
2022-07-26T01:36:13.914Z,98237.75
2022-07-26T01:38:41.462Z,98220.06
2022-07-26T01:41:08.437Z,98225.34
2022-07-26T01:43:36.479Z,98215.84
2022-07-26T01:46:05.421Z,98233.47
2022-07-26T01:48:32.178Z,98212.91
2022-07-26T01:50:59.071Z,98225.22
2022-07-26T01:53:25.783Z,98235.91
2022-07-26T01:55:52.602Z,98226.59
2022-07-26T01:58:19.326Z,98212.47
2022-07-26T02:00:45.939Z,98209.03
2022-07-26T02:03:12.636Z,98208.47
2022-07-26T02:05:39.254Z,98223.13
2022-07-26T02:08:06.513Z,98233.44
2022-07-26T02:10:52.011Z,98216.38
2022-07-26T02:13:18.982Z,98223.56
2022-07-26T02:15:45.698Z,98238.22
2022-07-26T02:18:12.353Z,98239.25
2022-07-26T02:20:39.212Z,98215.25
2022-07-26T02:23:06.494Z,98223.94
2022-07-26T02:25:33.281Z,98230.97
2022-07-26T02:28:01.254Z,98215.84
2022-07-26T02:30:28.390Z,98196.19
2022-07-26T02:32:55.483Z,98213.44
2022-07-26T02:35:22.227Z,98227.72
2022-07-26T02:37:48.883Z,98198.19
2022-07-26T02:40:19.032Z,98204.38
2022-07-26T02:42:46.073Z,98203.16
2022-07-26T02:45:12.696Z,98204.63
2022-07-26T02:47:50.628Z,98219.94
2022-07-26T02:50:18.817Z,98213.56
2022-07-26T02:52:48.138Z,98215.59
2022-07-26T02:55:16.587Z,98213.94
2022-07-26T02:57:46.578Z,98196.75
2022-07-26T03:00:15.612Z,98213.00
2022-07-26T03:02:42.345Z,98207.88
2022-07-26T03:05:09.709Z,98211.03
2022-07-26T03:07:36.689Z,98197.31
2022-07-26T03:10:04.565Z,98192.28
2022-07-26T03:12:31.157Z,98201.31
2022-07-26T03:14:57.797Z,98204.22
2022-07-26T03:17:24.473Z,98212.06
2022-07-26T03:19:51.075Z,98200.53
2022-07-26T03:22:17.956Z,98195.88
2022-07-26T03:24:44.615Z,98223.25
2022-07-26T03:27:11.151Z,98205.09
2022-07-26T03:29:37.865Z,98195.88
2022-07-26T03:32:04.708Z,98226.56
2022-07-26T03:34:31.376Z,98203.34
2022-07-26T03:36:58.013Z,98215.94
2022-07-26T03:39:25.579Z,98206.09
2022-07-26T03:41:52.244Z,98226.88
2022-07-26T03:44:18.872Z,98221.16
2022-07-26T03:46:45.616Z,98206.56
2022-07-26T03:49:16.578Z,98179.78
2022-07-26T03:51:43.731Z,98209.47
2022-07-26T03:54:10.639Z,98200.19
2022-07-26T03:56:37.606Z,98220.78
2022-07-26T03:59:06.995Z,98226.22
2022-07-26T04:01:35.044Z,98223.38
2022-07-26T04:04:02.089Z,98217.00
2022-07-26T04:06:29.191Z,98227.22
2022-07-26T04:08:56.825Z,98229.47
2022-07-26T04:11:26.508Z,98207.03
2022-07-26T04:13:55.647Z,98224.09
2022-07-26T04:16:22.624Z,98227.19
2022-07-26T04:18:49.314Z,98219.56
2022-07-26T04:21:15.982Z,98213.13
2022-07-26T04:23:44.481Z,98195.66
2022-07-26T04:26:16.002Z,98213.13
2022-07-26T04:28:42.694Z,98208.19
2022-07-26T04:31:10.064Z,98217.31
2022-07-26T04:33:36.734Z,98196.22
2022-07-26T04:36:03.807Z,98222.66
2022-07-26T04:38:30.778Z,98199.88
2022-07-26T04:40:58.106Z,98195.16
2022-07-26T04:43:25.500Z,98228.09
2022-07-26T04:45:52.313Z,98212.94
2022-07-26T04:48:19.020Z,98211.00
2022-07-26T04:50:46.189Z,98214.13
2022-07-26T04:53:12.901Z,98197.94
2022-07-26T04:55:40.520Z,98216.63
2022-07-26T04:58:07.972Z,98220.97
2022-07-26T05:00:56.435Z,98219.06
2022-07-26T05:03:25.094Z,98217.66
2022-07-26T05:05:52.190Z,98205.91
2022-07-26T05:08:21.396Z,98208.72
2022-07-26T05:10:54.587Z,98202.63
2022-07-26T05:13:23.186Z,98212.69
2022-07-26T05:15:56.218Z,98205.84
2022-07-26T05:18:23.269Z,98213.16
2022-07-26T05:20:51.006Z,98223.06
2022-07-26T05:23:17.594Z,98198.34
2022-07-26T05:25:45.100Z,98197.53
2022-07-26T05:28:11.815Z,98206.63
2022-07-26T05:30:38.510Z,98226.59
2022-07-26T05:33:05.175Z,98222.88
2022-07-26T05:35:31.727Z,98218.13
2022-07-26T05:37:58.602Z,98210.91
2022-07-26T05:40:25.363Z,98216.50
2022-07-26T05:42:51.936Z,98221.66
2022-07-26T05:45:18.600Z,98211.97
2022-07-26T05:47:45.185Z,98196.38
2022-07-26T05:50:11.751Z,98212.38
2022-07-26T05:52:38.342Z,98199.91
2022-07-26T05:55:05.455Z,98216.78
2022-07-26T05:57:32.025Z,98197.16
2022-07-26T05:59:58.700Z,98206.34
2022-07-26T06:02:25.414Z,98210.81
2022-07-26T06:04:52.170Z,98192.97
2022-07-26T06:07:18.944Z,98205.38
2022-07-26T06:09:45.572Z,98215.09
2022-07-26T06:12:12.206Z,98218.53
2022-07-26T06:14:38.783Z,98213.59
2022-07-26T06:17:05.554Z,98204.59
2022-07-26T06:19:32.946Z,98207.38
2022-07-26T06:22:00.542Z,98200.84
2022-07-26T06:24:27.313Z,98214.78
2022-07-26T06:27:04.611Z,98219.19
2022-07-26T06:29:32.242Z,98201.28
2022-07-26T06:31:59.535Z,98204.50
2022-07-26T06:34:26.175Z,98208.06
2022-07-26T06:36:52.809Z,98208.06
2022-07-26T06:39:19.494Z,98214.81
2022-07-26T06:41:46.690Z,98215.03
2022-07-26T06:44:13.285Z,98229.75
2022-07-26T06:46:40.081Z,98208.25
2022-07-26T06:49:07.174Z,98204.56
2022-07-26T06:51:33.991Z,98205.75
2022-07-26T06:54:00.961Z,98228.22
2022-07-26T06:56:27.874Z,98197.78
2022-07-26T06:58:55.346Z,98210.97
2022-07-26T07:01:57.986Z,98211.97
2022-07-26T07:04:09.657Z,98210.72
2022-07-26T07:06:36.603Z,98225.16
2022-07-26T07:09:03.254Z,98209.72
2022-07-26T07:11:29.889Z,98218.78
2022-07-26T07:13:56.554Z,98215.69
2022-07-26T07:16:23.205Z,98216.03
2022-07-26T07:18:51.370Z,98224.75
2022-07-26T07:21:17.978Z,98219.47
2022-07-26T07:23:44.616Z,98215.47
2022-07-26T07:26:11.328Z,98228.72
2022-07-26T07:28:40.770Z,98223.81
2022-07-26T07:31:07.484Z,98224.94
2022-07-26T07:33:36.735Z,98200.56
2022-07-26T07:36:19.918Z,98212.53
2022-07-26T07:38:46.935Z,98202.09
2022-07-26T07:41:13.933Z,98222.16
2022-07-26T07:43:40.505Z,98238.88
2022-07-26T07:46:07.419Z,98233.34
2022-07-26T07:48:34.438Z,98236.44
2022-07-26T07:51:01.285Z,98231.75
2022-07-26T07:53:28.330Z,98236.19
2022-07-26T07:55:57.258Z,98243.13
2022-07-26T07:58:24.311Z,98223.94
2022-07-26T08:00:55.123Z,98226.16
2022-07-26T08:03:21.890Z,98238.78
2022-07-26T08:05:49.863Z,98232.00
2022-07-26T08:08:18.571Z,98223.41
2022-07-26T08:10:52.019Z,98224.59
2022-07-26T08:13:21.364Z,98211.28
2022-07-26T08:15:49.496Z,98229.16
2022-07-26T08:18:16.234Z,98211.31
2022-07-26T08:20:43.396Z,98225.38
2022-07-26T08:23:10.632Z,98237.59
2022-07-26T08:25:42.645Z,98234.84
2022-07-26T08:28:37.790Z,98226.13
2022-07-26T08:31:04.704Z,98233.06
2022-07-26T08:33:31.399Z,98212.22
2022-07-26T08:35:58.704Z,98208.00
2022-07-26T08:38:25.675Z,98223.88
2022-07-26T08:40:52.471Z,98230.22
2022-07-26T08:43:19.051Z,98228.88
2022-07-26T08:45:47.318Z,98218.69
2022-07-26T08:48:17.705Z,98218.88
2022-07-26T08:50:44.910Z,98226.69
2022-07-26T08:53:13.141Z,98225.81
2022-07-26T08:56:05.538Z,98228.28
2022-07-26T08:58:26.720Z,98215.56
2022-07-26T09:01:14.289Z,98232.53
2022-07-26T09:03:43.244Z,98220.72
2022-07-26T09:06:22.724Z,98223.16
2022-07-26T09:09:09.583Z,98213.97
2022-07-26T09:11:36.432Z,98189.31
2022-07-26T09:14:05.320Z,98212.72
2022-07-26T09:16:37.245Z,98211.25
2022-07-26T09:19:22.800Z,98206.69
2022-07-26T09:21:50.426Z,98204.03
2022-07-26T09:24:47.513Z,98205.22
2022-07-26T09:27:18.397Z,98200.34
2022-07-26T09:29:53.010Z,98215.22
2022-07-26T09:32:26.259Z,98211.78
2022-07-26T09:35:24.113Z,98202.50
2022-07-26T09:37:55.646Z,98199.53
2022-07-26T09:40:22.570Z,98206.69
2022-07-26T09:43:01.863Z,98206.66
2022-07-26T09:45:30.771Z,98209.06
2022-07-26T09:47:57.654Z,98208.97
2022-07-26T09:50:27.869Z,98200.00
2022-07-26T09:53:13.334Z,98188.91
2022-07-26T09:55:46.113Z,98193.22
2022-07-26T09:58:15.604Z,98190.09
2022-07-26T10:00:45.347Z,98190.00
2022-07-26T10:03:13.862Z,98187.84
2022-07-26T10:05:41.032Z,98167.69
2022-07-26T10:08:08.758Z,98186.13
2022-07-26T10:10:42.212Z,98189.44
2022-07-26T10:13:10.396Z,98201.72
2022-07-26T10:15:38.295Z,98201.16
2022-07-26T10:18:16.544Z,98196.53
2022-07-26T10:20:51.435Z,98184.38
2022-07-26T10:23:39.923Z,98180.47
2022-07-26T10:26:10.083Z,98179.59
2022-07-26T10:28:39.329Z,98164.16
2022-07-26T10:31:21.189Z,98184.25
2022-07-26T10:33:50.728Z,98189.47
2022-07-26T10:36:33.488Z,98183.88
2022-07-26T10:39:09.192Z,98184.84
2022-07-26T10:41:37.851Z,98174.44
2022-07-26T10:44:24.546Z,98174.00
2022-07-26T10:47:18.879Z,98167.03
2022-07-26T10:49:59.583Z,98168.63
2022-07-26T10:52:30.080Z,98169.00
2022-07-26T10:54:56.561Z,98162.53
2022-07-26T10:57:27.997Z,98165.31
2022-07-26T10:59:57.981Z,98168.28
2022-07-26T11:02:33.950Z,98157.72
2022-07-26T11:05:13.239Z,98161.44
2022-07-26T11:07:56.671Z,98150.16
2022-07-26T11:10:28.745Z,98155.31
2022-07-26T11:13:12.982Z,98168.72
2022-07-26T11:15:42.575Z,98147.16
2022-07-26T11:18:10.247Z,98137.94
2022-07-26T11:20:37.442Z,98142.16
2022-07-26T11:23:19.206Z,98147.13
2022-07-26T11:26:15.113Z,98144.94
2022-07-26T11:28:53.531Z,98138.56
2022-07-26T11:31:51.376Z,98140.69
2022-07-26T11:34:19.347Z,98138.19
2022-07-26T11:36:49.961Z,98140.53
2022-07-26T11:39:25.236Z,98140.72
2022-07-26T11:41:57.939Z,98139.38
2022-07-26T11:44:24.858Z,98132.16
2022-07-26T11:46:52.556Z,98118.66
2022-07-26T11:49:41.364Z,98123.47
2022-07-26T11:52:12.177Z,98116.38
2022-07-26T11:54:46.745Z,98115.31
2022-07-26T11:57:14.326Z,98122.47
2022-07-26T11:59:43.893Z,98124.78
2022-07-26T12:02:11.252Z,98096.47
2022-07-26T12:04:43.668Z,98105.34
2022-07-26T12:07:13.307Z,98111.84
2022-07-26T12:09:47.245Z,98104.25
2022-07-26T12:12:27.678Z,98103.25
2022-07-26T12:15:03.820Z,98109.56
2022-07-26T12:17:35.367Z,98103.88
2022-07-26T12:20:14.714Z,98095.97
2022-07-26T12:23:00.683Z,98101.94
2022-07-26T12:25:29.162Z,98084.88
2022-07-26T12:27:57.226Z,98079.06
2022-07-26T12:30:25.691Z,98096.78
2022-07-26T12:33:02.228Z,98084.16
2022-07-26T12:35:33.743Z,98070.84
2022-07-26T12:38:01.559Z,98071.09
2022-07-26T12:40:30.847Z,98070.34
2022-07-26T12:43:02.144Z,98065.47
2022-07-26T12:45:34.799Z,98078.69
2022-07-26T12:48:03.588Z,98071.78
2022-07-26T12:50:32.954Z,98074.06
2022-07-26T12:53:04.876Z,98068.97
2022-07-26T12:55:32.145Z,98051.16
2022-07-26T12:57:59.523Z,98065.31
2022-07-26T13:00:26.877Z,98069.13
2022-07-26T13:02:56.379Z,98064.66
2022-07-26T13:05:23.692Z,98058.66
2022-07-26T13:07:54.969Z,98056.16
2022-07-26T13:10:33.045Z,98035.31
2022-07-26T13:13:00.700Z,98045.69
2022-07-26T13:15:36.494Z,98035.63
2022-07-26T13:18:05.437Z,98046.53
2022-07-26T13:20:32.703Z,98036.75
2022-07-26T13:23:01.286Z,98045.59
2022-07-26T13:25:37.077Z,98037.59
2022-07-26T13:28:06.186Z,98026.09
2022-07-26T13:30:32.847Z,98036.38
2022-07-26T13:32:59.582Z,98033.69
2022-07-26T13:35:26.501Z,98028.81
2022-07-26T13:37:53.264Z,98036.22
2022-07-26T13:40:20.114Z,98022.94
2022-07-26T13:42:50.038Z,98002.41
2022-07-26T13:45:16.864Z,98014.31
2022-07-26T13:47:43.837Z,98006.47
2022-07-26T13:50:10.672Z,98017.97
2022-07-26T13:52:37.425Z,98011.41
2022-07-26T13:55:04.542Z,98022.88
2022-07-26T13:57:47.171Z,98018.59
2022-07-26T14:00:20.140Z,98011.00
2022-07-26T14:02:46.841Z,98017.53
2022-07-26T14:05:13.542Z,98023.44
2022-07-26T14:07:42.446Z,98018.97
2022-07-26T14:10:09.536Z,98009.47
2022-07-26T14:12:37.226Z,98004.56
2022-07-26T14:15:09.147Z,98006.78
2022-07-26T14:17:39.017Z,98005.03
2022-07-26T14:20:06.536Z,97995.84
2022-07-26T14:22:33.194Z,98004.81
2022-07-26T14:24:59.925Z,98007.56
2022-07-26T14:27:28.581Z,97994.00
2022-07-26T14:29:56.299Z,98001.41
2022-07-26T14:32:23.037Z,97994.78
2022-07-26T14:34:51.191Z,97999.28
2022-07-26T14:37:41.405Z,97997.63
2022-07-26T14:40:06.392Z,97997.66
2022-07-26T14:42:33.898Z,97980.91
2022-07-26T14:45:00.779Z,97988.72
2022-07-26T14:47:27.470Z,97993.91
2022-07-26T14:49:54.166Z,97997.97
2022-07-26T14:52:20.855Z,97997.28
2022-07-26T14:54:47.577Z,98001.19
2022-07-26T14:57:14.214Z,97993.56
2022-07-26T14:59:40.796Z,97993.19
2022-07-26T15:02:08.465Z,97999.38
2022-07-26T15:04:35.087Z,97995.53
2022-07-26T15:07:01.715Z,97995.88
2022-07-26T15:09:31.126Z,97997.56
2022-07-26T15:11:58.232Z,97980.28
2022-07-26T15:14:24.842Z,97977.34
2022-07-26T15:16:51.467Z,97985.63
2022-07-26T15:19:22.169Z,97964.25
2022-07-26T15:21:53.721Z,97977.06
2022-07-26T15:24:20.576Z,97972.91
2022-07-26T15:26:49.837Z,97961.91
2022-07-26T15:29:16.449Z,97970.19
2022-07-26T15:31:43.126Z,97969.50
2022-07-26T15:34:11.125Z,97974.44
2022-07-26T15:36:38.031Z,97979.47
2022-07-26T15:39:16.645Z,97976.28
2022-07-26T15:41:46.222Z,97959.41
2022-07-26T15:44:13.261Z,97966.03
2022-07-26T15:46:41.098Z,97963.44
2022-07-26T15:49:08.082Z,97951.28
2022-07-26T15:51:34.718Z,97963.84
2022-07-26T15:54:03.190Z,97960.25
2022-07-26T15:56:29.956Z,97945.56
2022-07-26T15:58:56.581Z,97950.66
2022-07-26T16:01:23.328Z,97948.53
2022-07-26T16:03:50.569Z,97949.38
2022-07-26T16:06:17.823Z,97956.13
2022-07-26T16:09:05.916Z,97955.84
2022-07-26T16:11:31.411Z,97950.03
2022-07-26T16:14:01.112Z,97944.69
2022-07-26T16:16:32.219Z,97942.41
2022-07-26T16:18:59.175Z,97940.16
2022-07-26T16:21:25.805Z,97941.25
2022-07-26T16:23:52.386Z,97946.75
2022-07-26T16:26:19.045Z,97935.03
2022-07-26T16:28:46.100Z,97942.31
2022-07-26T16:31:12.782Z,97936.59
2022-07-26T16:33:46.026Z,97938.09
2022-07-26T16:36:17.971Z,97936.47
2022-07-26T16:38:44.549Z,97950.44
2022-07-26T16:41:11.137Z,97938.88
2022-07-26T16:43:37.718Z,97948.25
2022-07-26T16:46:04.385Z,97947.19
2022-07-26T16:48:31.110Z,97947.72
2022-07-26T16:51:00.032Z,97949.66
2022-07-26T16:53:26.724Z,97940.38
2022-07-26T16:55:53.445Z,97944.72
2022-07-26T16:58:20.165Z,97945.47
2022-07-26T17:00:47.233Z,97943.31
2022-07-26T17:03:17.537Z,97933.47
2022-07-26T17:05:46.234Z,97941.41
2022-07-26T17:08:13.460Z,97938.25
2022-07-26T17:10:40.036Z,97939.72
2022-07-26T17:13:07.014Z,97944.47
2022-07-26T17:15:33.632Z,97945.91
2022-07-26T17:18:00.398Z,97942.66
2022-07-26T17:20:27.436Z,97950.13
2022-07-26T17:22:54.365Z,97946.66
2022-07-26T17:25:21.032Z,97960.66
2022-07-26T17:27:47.632Z,97942.22
2022-07-26T17:30:14.474Z,97955.69
2022-07-26T17:32:41.138Z,97958.56
2022-07-26T17:35:09.200Z,97959.16
2022-07-26T17:37:35.967Z,97954.75
2022-07-26T17:40:07.959Z,97958.53
2022-07-26T17:42:35.757Z,97946.44
2022-07-26T17:45:02.569Z,97964.22
2022-07-26T17:47:30.544Z,97958.94
2022-07-26T17:50:34.754Z,97964.31
2022-07-26T17:52:55.025Z,97950.88
2022-07-26T17:55:22.108Z,97968.06
2022-07-26T17:57:50.158Z,97943.47
2022-07-26T18:00:19.757Z,97964.41
2022-07-26T18:02:47.433Z,97961.69
2022-07-26T18:05:14.667Z,97960.63
2022-07-26T18:07:41.483Z,97938.69
2022-07-26T18:10:08.773Z,97932.72
2022-07-26T18:12:35.414Z,97958.50
2022-07-26T18:15:02.060Z,97963.44
2022-07-26T18:17:28.817Z,97937.41
2022-07-26T18:19:55.465Z,97936.88
2022-07-26T18:22:23.280Z,97932.56
2022-07-26T18:24:49.915Z,97967.88
2022-07-26T18:27:16.520Z,97970.03
2022-07-26T18:29:43.156Z,97970.25
2022-07-26T18:32:09.756Z,97968.59
2022-07-26T18:34:36.308Z,97969.38
2022-07-26T18:37:02.918Z,97967.72
2022-07-26T18:39:32.603Z,97968.81
2022-07-26T18:41:59.449Z,97970.09
2022-07-26T18:44:26.018Z,97981.47
2022-07-26T18:46:52.805Z,97954.00
2022-07-26T18:49:21.087Z,97982.22
2022-07-26T18:51:49.067Z,97974.84
2022-07-26T18:54:17.196Z,97967.22
2022-07-26T18:56:43.934Z,97968.25
2022-07-26T18:59:10.800Z,97965.78
2022-07-26T19:02:07.621Z,97969.84
2022-07-26T19:04:34.441Z,97966.03
2022-07-26T19:07:01.020Z,97980.34
2022-07-26T19:09:27.640Z,97973.19
2022-07-26T19:11:54.321Z,97978.25
2022-07-26T19:14:20.881Z,97964.78
2022-07-26T19:16:47.532Z,97972.84
2022-07-26T19:19:14.483Z,97989.31
2022-07-26T19:21:45.303Z,97976.88
2022-07-26T19:24:12.027Z,97979.25
2022-07-26T19:26:38.591Z,97984.84
2022-07-26T19:29:05.294Z,97995.72
2022-07-26T19:31:32.087Z,97997.06
2022-07-26T19:33:58.699Z,98013.59
2022-07-26T19:36:25.956Z,97996.84
2022-07-26T19:38:53.845Z,98008.72
2022-07-26T19:41:20.468Z,98012.91
2022-07-26T19:43:47.187Z,98005.41
2022-07-26T19:46:13.920Z,98030.91
2022-07-26T19:48:43.050Z,98021.50
2022-07-26T19:51:09.705Z,98017.25
2022-07-26T19:53:36.281Z,98035.66
2022-07-26T19:56:03.646Z,98043.72
2022-07-26T19:58:30.737Z,98033.25
2022-07-26T20:00:57.369Z,98040.78
2022-07-26T20:03:23.931Z,98036.53
2022-07-26T20:05:50.518Z,98036.75
2022-07-26T20:08:17.041Z,98025.13
2022-07-26T20:10:43.648Z,98043.28
2022-07-26T20:13:10.298Z,98049.84
2022-07-26T20:15:36.915Z,98036.97
2022-07-26T20:18:04.651Z,98053.38
2022-07-26T20:20:31.412Z,98043.34
2022-07-26T20:22:57.970Z,98063.19
2022-07-26T20:25:25.255Z,98065.06
2022-07-26T20:27:54.345Z,98068.72
2022-07-26T20:30:21.694Z,98075.75
2022-07-26T20:32:48.281Z,98072.72
2022-07-26T20:35:14.881Z,98078.06
2022-07-26T20:37:43.090Z,98069.03
2022-07-26T20:40:11.961Z,98074.09
2022-07-26T20:42:41.890Z,98084.88
2022-07-26T20:45:13.074Z,98062.78
2022-07-26T20:47:40.566Z,98076.38
2022-07-26T20:50:09.162Z,98083.88
2022-07-26T20:52:36.261Z,98082.72
2022-07-26T20:55:03.305Z,98086.25
2022-07-26T20:57:29.922Z,98077.25
2022-07-26T20:59:56.527Z,98079.50
2022-07-26T21:02:23.222Z,98073.31
2022-07-26T21:04:50.550Z,98064.19
2022-07-26T21:07:17.329Z,98080.38
2022-07-26T21:09:43.975Z,98075.81
2022-07-26T21:12:10.575Z,98087.66
2022-07-26T21:14:37.159Z,98077.75
2022-07-26T21:17:07.921Z,98081.97
2022-07-26T21:19:37.673Z,98095.44
2022-07-26T21:22:04.416Z,98085.97
2022-07-26T21:24:31.053Z,98084.91
2022-07-26T21:26:57.678Z,98076.66
2022-07-26T21:29:24.244Z,98085.22
2022-07-26T21:31:52.950Z,98095.63
2022-07-26T21:34:20.004Z,98106.88
2022-07-26T21:36:46.642Z,98077.22
2022-07-26T21:39:13.757Z,98097.97
2022-07-26T21:41:40.631Z,98095.59
2022-07-26T21:44:10.668Z,98094.56
2022-07-26T21:46:37.519Z,98074.63
2022-07-26T21:49:05.024Z,98100.59
2022-07-26T21:51:31.697Z,98089.47
2022-07-26T21:53:58.319Z,98081.78
2022-07-26T21:56:28.123Z,98096.84
2022-07-26T21:58:55.476Z,98092.84
2022-07-26T22:01:22.163Z,98078.75
2022-07-26T22:03:48.750Z,98098.59
2022-07-26T22:06:16.844Z,98105.00
2022-07-26T22:08:43.532Z,98087.03
2022-07-26T22:11:10.718Z,98105.78
2022-07-26T22:13:38.014Z,98111.63
2022-07-26T22:16:06.276Z,98109.16
2022-07-26T22:18:32.904Z,98102.44
2022-07-26T22:21:00.985Z,98102.06
2022-07-26T22:23:30.580Z,98109.94
2022-07-26T22:26:04.413Z,98107.53
2022-07-26T22:28:32.727Z,98104.72
2022-07-26T22:30:59.860Z,98109.19
2022-07-26T22:33:26.600Z,98106.38
2022-07-26T22:35:53.444Z,98109.34
2022-07-26T22:38:20.039Z,98099.97
2022-07-26T22:40:46.729Z,98109.03
2022-07-26T22:43:14.745Z,98091.31
2022-07-26T22:45:41.983Z,98085.56
2022-07-26T22:48:09.633Z,98100.28
2022-07-26T22:50:36.538Z,98103.22
2022-07-26T22:53:03.616Z,98091.31
2022-07-26T22:55:31.105Z,98104.06
2022-07-26T22:57:57.900Z,98087.59
2022-07-26T23:00:25.084Z,98105.91
2022-07-26T23:02:52.137Z,98093.34
2022-07-26T23:05:19.575Z,98071.00
2022-07-26T23:07:47.807Z,98076.81
2022-07-26T23:10:14.741Z,98100.56
2022-07-26T23:12:41.315Z,98073.00
2022-07-26T23:15:10.012Z,98082.03
2022-07-26T23:17:37.530Z,98067.53
2022-07-26T23:20:09.137Z,98095.25
2022-07-26T23:22:35.816Z,98095.06
2022-07-26T23:25:02.379Z,98088.50
2022-07-26T23:27:28.992Z,98092.72
2022-07-26T23:29:55.628Z,98087.59
2022-07-26T23:32:22.268Z,98072.72
2022-07-26T23:34:48.905Z,98090.22
2022-07-26T23:37:15.472Z,98065.50
2022-07-26T23:39:42.346Z,98079.22
2022-07-26T23:42:08.932Z,98082.53
2022-07-26T23:44:35.573Z,98079.47
2022-07-26T23:47:02.270Z,98059.44
2022-07-26T23:49:29.090Z,98074.50
2022-07-26T23:51:55.681Z,98058.66
2022-07-26T23:54:22.280Z,98054.56
2022-07-26T23:56:48.908Z,98051.28
2022-07-26T23:59:15.831Z,98066.44
